sensor_id;sensor_type;location;lat;lon;timestamp;P1;durP1;ratioP1;P2;durP2;ratioP2
19173;SDS011;9719;49.322;8.536;2022-08-11T00:05:05;2.15;;;1.98;;
19173;SDS011;9719;49.322;8.536;2022-08-11T00:10:12;2.25;;;1.55;;
19173;SDS011;9719;49.322;8.536;2022-08-11T00:15:15;2.15;;;1.55;;
19173;SDS011;9719;49.322;8.536;2022-08-11T00:20:17;1.40;;;1.30;;
19173;SDS011;9719;49.322;8.536;2022-08-11T00:25:21;1.42;;;1.33;;
19173;SDS011;9719;49.322;8.536;2022-08-11T00:30:24;2.35;;;1.50;;
19173;SDS011;9719;49.322;8.536;2022-08-11T00:35:27;1.70;;;1.60;;
19173;SDS011;9719;49.322;8.536;2022-08-11T00:40:35;2.25;;;1.73;;
19173;SDS011;9719;49.322;8.536;2022-08-11T00:45:44;1.73;;;1.63;;
19173;SDS011;9719;49.322;8.536;2022-08-11T00:50:58;1.73;;;1.63;;
19173;SDS011;9719;49.322;8.536;2022-08-11T00:56:40;2.45;;;1.60;;
19173;SDS011;9719;49.322;8.536;2022-08-11T01:02:13;1.80;;;1.70;;
19173;SDS011;9719;49.322;8.536;2022-08-11T01:12:59;2.65;;;1.60;;
19173;SDS011;9719;49.322;8.536;2022-08-11T01:18:28;3.00;;;1.90;;
19173;SDS011;9719;49.322;8.536;2022-08-11T01:29:38;1.63;;;1.52;;
19173;SDS011;9719;49.322;8.536;2022-08-11T01:35:17;1.80;;;1.70;;
19173;SDS011;9719;49.322;8.536;2022-08-11T01:40:40;2.30;;;1.58;;
19173;SDS011;9719;49.322;8.536;2022-08-11T01:45:58;1.60;;;1.48;;
19173;SDS011;9719;49.322;8.536;2022-08-11T01:51:16;2.88;;;1.60;;
19173;SDS011;9719;49.322;8.536;2022-08-11T01:56:39;1.92;;;1.80;;
19173;SDS011;9719;49.322;8.536;2022-08-11T02:01:53;1.60;;;1.52;;
19173;SDS011;9719;49.322;8.536;2022-08-11T02:07:12;1.75;;;1.63;;
19173;SDS011;9719;49.322;8.536;2022-08-11T02:12:26;2.88;;;1.70;;
19173;SDS011;9719;49.322;8.536;2022-08-11T02:17:44;3.80;;;1.83;;
19173;SDS011;9719;49.322;8.536;2022-08-11T02:22:54;3.22;;;1.85;;
19173;SDS011;9719;49.322;8.536;2022-08-11T02:28:19;3.90;;;2.00;;
19173;SDS011;9719;49.322;8.536;2022-08-11T02:33:27;2.10;;;1.90;;
19173;SDS011;9719;49.322;8.536;2022-08-11T02:38:36;1.90;;;1.80;;
19173;SDS011;9719;49.322;8.536;2022-08-11T02:43:51;2.40;;;1.52;;
19173;SDS011;9719;49.322;8.536;2022-08-11T02:49:13;1.70;;;1.60;;
19173;SDS011;9719;49.322;8.536;2022-08-11T02:54:47;1.65;;;1.35;;
19173;SDS011;9719;49.322;8.536;2022-08-11T02:59:54;2.13;;;1.70;;
19173;SDS011;9719;49.322;8.536;2022-08-11T03:05:03;2.38;;;1.70;;
19173;SDS011;9719;49.322;8.536;2022-08-11T03:10:17;2.92;;;2.20;;
19173;SDS011;9719;49.322;8.536;2022-08-11T03:15:30;1.73;;;1.63;;
19173;SDS011;9719;49.322;8.536;2022-08-11T03:21:06;2.17;;;1.70;;
19173;SDS011;9719;49.322;8.536;2022-08-11T03:26:21;1.83;;;1.73;;
19173;SDS011;9719;49.322;8.536;2022-08-11T03:31:26;2.70;;;2.50;;
19173;SDS011;9719;49.322;8.536;2022-08-11T03:36:38;2.88;;;1.90;;
19173;SDS011;9719;49.322;8.536;2022-08-11T03:42:11;1.95;;;1.63;;
19173;SDS011;9719;49.322;8.536;2022-08-11T03:47:27;4.75;;;1.67;;
19173;SDS011;9719;49.322;8.536;2022-08-11T03:53:02;3.35;;;2.40;;
19173;SDS011;9719;49.322;8.536;2022-08-11T03:58:32;1.73;;;1.63;;
19173;SDS011;9719;49.322;8.536;2022-08-11T04:09:46;3.17;;;2.15;;
19173;SDS011;9719;49.322;8.536;2022-08-11T04:15:30;2.00;;;1.85;;
19173;SDS011;9719;49.322;8.536;2022-08-11T04:26:53;4.20;;;2.05;;
19173;SDS011;9719;49.322;8.536;2022-08-11T04:32:21;1.88;;;1.77;;
19173;SDS011;9719;49.322;8.536;2022-08-11T04:38:02;2.40;;;2.08;;
19173;SDS011;9719;49.322;8.536;2022-08-11T04:49:53;3.10;;;2.42;;
19173;SDS011;9719;49.322;8.536;2022-08-11T04:55:31;2.10;;;2.00;;
19173;SDS011;9719;49.322;8.536;2022-08-11T05:01:15;3.42;;;2.33;;
19173;SDS011;9719;49.322;8.536;2022-08-11T05:12:59;4.65;;;2.33;;
19173;SDS011;9719;49.322;8.536;2022-08-11T05:18:47;5.03;;;2.90;;
19173;SDS011;9719;49.322;8.536;2022-08-11T05:24:29;3.25;;;2.95;;
19173;SDS011;9719;49.322;8.536;2022-08-11T05:41:35;4.20;;;2.83;;
19173;SDS011;9719;49.322;8.536;2022-08-11T05:46:57;3.60;;;3.28;;
19173;SDS011;9719;49.322;8.536;2022-08-11T05:52:19;3.17;;;2.85;;
19173;SDS011;9719;49.322;8.536;2022-08-11T05:57:53;4.05;;;2.70;;
19173;SDS011;9719;49.322;8.536;2022-08-11T06:03:00;7.10;;;3.00;;
19173;SDS011;9719;49.322;8.536;2022-08-11T06:08:06;2.90;;;2.70;;
19173;SDS011;9719;49.322;8.536;2022-08-11T06:13:10;6.47;;;3.10;;
19173;SDS011;9719;49.322;8.536;2022-08-11T06:18:17;3.83;;;2.92;;
19173;SDS011;9719;49.322;8.536;2022-08-11T06:23:20;4.40;;;3.10;;
19173;SDS011;9719;49.322;8.536;2022-08-11T06:28:27;2.60;;;2.40;;
19173;SDS011;9719;49.322;8.536;2022-08-11T06:33:35;5.00;;;2.85;;
19173;SDS011;9719;49.322;8.536;2022-08-11T06:38:53;2.72;;;2.40;;
19173;SDS011;9719;49.322;8.536;2022-08-11T06:44:08;2.22;;;2.03;;
19173;SDS011;9719;49.322;8.536;2022-08-11T06:49:23;3.30;;;2.33;;
19173;SDS011;9719;49.322;8.536;2022-08-11T06:54:52;2.58;;;2.22;;
19173;SDS011;9719;49.322;8.536;2022-08-11T06:59:56;1.90;;;1.80;;
19173;SDS011;9719;49.322;8.536;2022-08-11T07:05:20;2.33;;;2.13;;
19173;SDS011;9719;49.322;8.536;2022-08-11T07:10:39;3.10;;;1.75;;
19173;SDS011;9719;49.322;8.536;2022-08-11T07:16:09;1.92;;;1.77;;
19173;SDS011;9719;49.322;8.536;2022-08-11T07:21:21;2.38;;;1.73;;
19173;SDS011;9719;49.322;8.536;2022-08-11T07:26:49;2.17;;;2.00;;
19173;SDS011;9719;49.322;8.536;2022-08-11T07:32:14;3.10;;;1.90;;
19173;SDS011;9719;49.322;8.536;2022-08-11T07:37:38;4.28;;;2.25;;
19173;SDS011;9719;49.322;8.536;2022-08-11T07:49:00;2.47;;;1.77;;
19173;SDS011;9719;49.322;8.536;2022-08-11T07:54:27;1.67;;;1.58;;
19173;SDS011;9719;49.322;8.536;2022-08-11T07:59:36;2.13;;;1.80;;
19173;SDS011;9719;49.322;8.536;2022-08-11T08:10:39;1.70;;;1.60;;
19173;SDS011;9719;49.322;8.536;2022-08-11T08:16:00;1.90;;;1.80;;
19173;SDS011;9719;49.322;8.536;2022-08-11T08:21:25;1.55;;;1.45;;
19173;SDS011;9719;49.322;8.536;2022-08-11T08:26:40;1.80;;;1.60;;
19173;SDS011;9719;49.322;8.536;2022-08-11T08:32:04;2.30;;;2.10;;
19173;SDS011;9719;49.322;8.536;2022-08-11T08:37:19;5.47;;;1.80;;
19173;SDS011;9719;49.322;8.536;2022-08-11T08:42:27;1.70;;;1.60;;
19173;SDS011;9719;49.322;8.536;2022-08-11T08:47:34;2.17;;;1.88;;
19173;SDS011;9719;49.322;8.536;2022-08-11T08:52:38;2.55;;;1.60;;
19173;SDS011;9719;49.322;8.536;2022-08-11T08:57:47;1.65;;;1.52;;
19173;SDS011;9719;49.322;8.536;2022-08-11T09:02:51;1.80;;;1.70;;
19173;SDS011;9719;49.322;8.536;2022-08-11T09:07:54;2.42;;;1.55;;
19173;SDS011;9719;49.322;8.536;2022-08-11T09:12:59;1.80;;;1.70;;
19173;SDS011;9719;49.322;8.536;2022-08-11T09:18:03;1.55;;;1.45;;
19173;SDS011;9719;49.322;8.536;2022-08-11T09:23:08;2.20;;;2.10;;
19173;SDS011;9719;49.322;8.536;2022-08-11T09:28:29;2.72;;;1.70;;
19173;SDS011;9719;49.322;8.536;2022-08-11T09:33:33;1.70;;;1.60;;
19173;SDS011;9719;49.322;8.536;2022-08-11T09:38:38;1.40;;;1.30;;
19173;SDS011;9719;49.322;8.536;2022-08-11T09:44:00;1.88;;;1.40;;
19173;SDS011;9719;49.322;8.536;2022-08-11T09:49:21;1.63;;;1.20;;
19173;SDS011;9719;49.322;8.536;2022-08-11T09:54:30;2.28;;;1.88;;
19173;SDS011;9719;49.322;8.536;2022-08-11T09:59:34;1.40;;;1.30;;
19173;SDS011;9719;49.322;8.536;2022-08-11T10:04:39;2.35;;;1.15;;
19173;SDS011;9719;49.322;8.536;2022-08-11T10:09:45;1.25;;;1.15;;
19173;SDS011;9719;49.322;8.536;2022-08-11T10:14:55;1.35;;;1.20;;
19173;SDS011;9719;49.322;8.536;2022-08-11T10:20:19;1.60;;;1.10;;
19173;SDS011;9719;49.322;8.536;2022-08-11T10:25:26;2.60;;;1.30;;
19173;SDS011;9719;49.322;8.536;2022-08-11T10:30:56;1.20;;;1.10;;
19173;SDS011;9719;49.322;8.536;2022-08-11T10:36:19;2.53;;;1.00;;
19173;SDS011;9719;49.322;8.536;2022-08-11T10:41:21;1.30;;;0.90;;
19173;SDS011;9719;49.322;8.536;2022-08-11T10:46:43;2.45;;;1.20;;
19173;SDS011;9719;49.322;8.536;2022-08-11T10:52:04;1.05;;;1.05;;
19173;SDS011;9719;49.322;8.536;2022-08-11T10:57:23;2.70;;;1.10;;
19173;SDS011;9719;49.322;8.536;2022-08-11T11:02:45;1.38;;;1.27;;
19173;SDS011;9719;49.322;8.536;2022-08-11T11:07:55;3.17;;;1.20;;
19173;SDS011;9719;49.322;8.536;2022-08-11T11:13:23;3.33;;;1.17;;
19173;SDS011;9719;49.322;8.536;2022-08-11T11:18:45;1.50;;;1.40;;
19173;SDS011;9719;49.322;8.536;2022-08-11T11:23:51;1.20;;;1.10;;
19173;SDS011;9719;49.322;8.536;2022-08-11T11:29:10;1.60;;;1.10;;
19173;SDS011;9719;49.322;8.536;2022-08-11T11:34:44;2.17;;;1.15;;
19173;SDS011;9719;49.322;8.536;2022-08-11T11:40:08;1.13;;;1.10;;
19173;SDS011;9719;49.322;8.536;2022-08-11T11:45:13;1.60;;;1.00;;
19173;SDS011;9719;49.322;8.536;2022-08-11T11:50:33;1.38;;;1.27;;
19173;SDS011;9719;49.322;8.536;2022-08-11T11:55:42;2.67;;;1.17;;
19173;SDS011;9719;49.322;8.536;2022-08-11T12:00:52;1.70;;;1.60;;
19173;SDS011;9719;49.322;8.536;2022-08-11T12:06:14;1.90;;;1.20;;
19173;SDS011;9719;49.322;8.536;2022-08-11T12:11:26;2.65;;;1.10;;
19173;SDS011;9719;49.322;8.536;2022-08-11T12:16:48;1.50;;;1.10;;
19173;SDS011;9719;49.322;8.536;2022-08-11T12:21:54;3.08;;;1.58;;
19173;SDS011;9719;49.322;8.536;2022-08-11T12:27:17;1.23;;;1.13;;
19173;SDS011;9719;49.322;8.536;2022-08-11T12:32:24;1.95;;;1.05;;
19173;SDS011;9719;49.322;8.536;2022-08-11T12:37:34;1.02;;;1.00;;
19173;SDS011;9719;49.322;8.536;2022-08-11T12:42:37;1.10;;;1.10;;
19173;SDS011;9719;49.322;8.536;2022-08-11T12:48:03;2.28;;;1.30;;
19173;SDS011;9719;49.322;8.536;2022-08-11T12:53:31;1.45;;;1.00;;
19173;SDS011;9719;49.322;8.536;2022-08-11T12:58:40;1.45;;;1.10;;
19173;SDS011;9719;49.322;8.536;2022-08-11T13:03:45;1.10;;;1.10;;
19173;SDS011;9719;49.322;8.536;2022-08-11T13:09:06;3.17;;;1.02;;
19173;SDS011;9719;49.322;8.536;2022-08-11T13:14:10;2.40;;;2.20;;
19173;SDS011;9719;49.322;8.536;2022-08-11T13:19:16;3.00;;;1.30;;
19173;SDS011;9719;49.322;8.536;2022-08-11T13:24:20;3.35;;;1.23;;
19173;SDS011;9719;49.322;8.536;2022-08-11T13:29:25;3.03;;;1.55;;
19173;SDS011;9719;49.322;8.536;2022-08-11T13:34:29;0.95;;;0.95;;
19173;SDS011;9719;49.322;8.536;2022-08-11T13:39:34;1.33;;;1.00;;
19173;SDS011;9719;49.322;8.536;2022-08-11T13:44:45;1.35;;;1.20;;
19173;SDS011;9719;49.322;8.536;2022-08-11T13:49:59;1.08;;;1.08;;
19173;SDS011;9719;49.322;8.536;2022-08-11T13:55:05;1.65;;;1.00;;
19173;SDS011;9719;49.322;8.536;2022-08-11T14:00:09;1.13;;;1.05;;
19173;SDS011;9719;49.322;8.536;2022-08-11T14:05:14;1.55;;;1.15;;
19173;SDS011;9719;49.322;8.536;2022-08-11T14:10:23;2.40;;;0.95;;
19173;SDS011;9719;49.322;8.536;2022-08-11T14:15:31;1.23;;;1.13;;
19173;SDS011;9719;49.322;8.536;2022-08-11T14:20:36;2.30;;;1.30;;
19173;SDS011;9719;49.322;8.536;2022-08-11T14:26:02;1.15;;;0.93;;
19173;SDS011;9719;49.322;8.536;2022-08-11T14:31:26;1.25;;;0.90;;
19173;SDS011;9719;49.322;8.536;2022-08-11T14:36:30;1.80;;;1.35;;
19173;SDS011;9719;49.322;8.536;2022-08-11T14:41:47;2.13;;;1.20;;
19173;SDS011;9719;49.322;8.536;2022-08-11T14:47:21;1.10;;;1.05;;
19173;SDS011;9719;49.322;8.536;2022-08-11T14:52:34;2.42;;;1.50;;
19173;SDS011;9719;49.322;8.536;2022-08-11T15:02:59;1.30;;;1.20;;
19173;SDS011;9719;49.322;8.536;2022-08-11T15:08:12;1.35;;;1.00;;
19173;SDS011;9719;49.322;8.536;2022-08-11T15:13:19;1.92;;;1.08;;
19173;SDS011;9719;49.322;8.536;2022-08-11T15:18:22;1.52;;;1.05;;
19173;SDS011;9719;49.322;8.536;2022-08-11T15:23:28;1.45;;;1.05;;
19173;SDS011;9719;49.322;8.536;2022-08-11T15:28:50;2.90;;;1.20;;
19173;SDS011;9719;49.322;8.536;2022-08-11T15:34:14;1.40;;;1.30;;
19173;SDS011;9719;49.322;8.536;2022-08-11T15:39:38;3.33;;;1.15;;
19173;SDS011;9719;49.322;8.536;2022-08-11T15:45:08;0.98;;;0.90;;
19173;SDS011;9719;49.322;8.536;2022-08-11T15:50:29;1.35;;;1.25;;
19173;SDS011;9719;49.322;8.536;2022-08-11T15:55:35;1.40;;;1.23;;
19173;SDS011;9719;49.322;8.536;2022-08-11T16:00:40;1.35;;;1.17;;
19173;SDS011;9719;49.322;8.536;2022-08-11T16:06:03;0.95;;;0.90;;
19173;SDS011;9719;49.322;8.536;2022-08-11T16:11:05;1.40;;;1.10;;
19173;SDS011;9719;49.322;8.536;2022-08-11T16:16:10;1.55;;;1.45;;
19173;SDS011;9719;49.322;8.536;2022-08-11T16:21:18;1.30;;;1.20;;
19173;SDS011;9719;49.322;8.536;2022-08-11T16:26:23;1.40;;;1.30;;
19173;SDS011;9719;49.322;8.536;2022-08-11T16:31:28;1.30;;;1.00;;
19173;SDS011;9719;49.322;8.536;2022-08-11T16:36:33;0.82;;;0.82;;
19173;SDS011;9719;49.322;8.536;2022-08-11T16:41:52;1.05;;;0.95;;
19173;SDS011;9719;49.322;8.536;2022-08-11T16:47:14;1.33;;;1.17;;
19173;SDS011;9719;49.322;8.536;2022-08-11T16:52:18;1.20;;;0.90;;
19173;SDS011;9719;49.322;8.536;2022-08-11T16:57:22;2.13;;;1.15;;
19173;SDS011;9719;49.322;8.536;2022-08-11T17:02:45;1.55;;;1.10;;
19173;SDS011;9719;49.322;8.536;2022-08-11T17:08:08;4.22;;;1.10;;
19173;SDS011;9719;49.322;8.536;2022-08-11T17:13:30;1.60;;;0.82;;
19173;SDS011;9719;49.322;8.536;2022-08-11T17:18:39;1.08;;;1.00;;
19173;SDS011;9719;49.322;8.536;2022-08-11T17:23:46;2.33;;;1.00;;
19173;SDS011;9719;49.322;8.536;2022-08-11T17:28:52;2.45;;;1.10;;
19173;SDS011;9719;49.322;8.536;2022-08-11T17:33:59;1.17;;;1.00;;
19173;SDS011;9719;49.322;8.536;2022-08-11T17:39:21;2.38;;;1.08;;
19173;SDS011;9719;49.322;8.536;2022-08-11T17:44:28;2.03;;;0.90;;
19173;SDS011;9719;49.322;8.536;2022-08-11T17:49:50;1.10;;;1.00;;
19173;SDS011;9719;49.322;8.536;2022-08-11T17:54:53;1.25;;;1.15;;
19173;SDS011;9719;49.322;8.536;2022-08-11T18:00:14;2.15;;;1.00;;
19173;SDS011;9719;49.322;8.536;2022-08-11T18:05:19;3.05;;;1.65;;
19173;SDS011;9719;49.322;8.536;2022-08-11T18:10:24;2.13;;;0.90;;
19173;SDS011;9719;49.322;8.536;2022-08-11T18:15:46;1.30;;;0.98;;
19173;SDS011;9719;49.322;8.536;2022-08-11T18:21:07;1.30;;;1.20;;
19173;SDS011;9719;49.322;8.536;2022-08-11T18:26:28;1.33;;;1.10;;
19173;SDS011;9719;49.322;8.536;2022-08-11T18:31:48;1.45;;;1.20;;
19173;SDS011;9719;49.322;8.536;2022-08-11T18:37:12;4.53;;;1.23;;
19173;SDS011;9719;49.322;8.536;2022-08-11T18:42:36;1.83;;;1.17;;
19173;SDS011;9719;49.322;8.536;2022-08-11T18:48:00;1.95;;;1.52;;
19173;SDS011;9719;49.322;8.536;2022-08-11T18:53:23;3.22;;;1.63;;
19173;SDS011;9719;49.322;8.536;2022-08-11T18:58:45;5.00;;;1.30;;
19173;SDS011;9719;49.322;8.536;2022-08-11T19:04:06;1.50;;;1.10;;
19173;SDS011;9719;49.322;8.536;2022-08-11T19:09:28;1.17;;;1.08;;
19173;SDS011;9719;49.322;8.536;2022-08-11T19:14:49;1.17;;;1.08;;
19173;SDS011;9719;49.322;8.536;2022-08-11T19:20:10;3.25;;;1.40;;
19173;SDS011;9719;49.322;8.536;2022-08-11T19:25:33;5.95;;;2.60;;
19173;SDS011;9719;49.322;8.536;2022-08-11T19:30:54;2.85;;;1.60;;
19173;SDS011;9719;49.322;8.536;2022-08-11T19:36:14;2.33;;;1.58;;
19173;SDS011;9719;49.322;8.536;2022-08-11T19:41:37;1.65;;;1.55;;
19173;SDS011;9719;49.322;8.536;2022-08-11T19:46:59;2.35;;;1.70;;
19173;SDS011;9719;49.322;8.536;2022-08-11T19:52:20;3.20;;;1.88;;
19173;SDS011;9719;49.322;8.536;2022-08-11T19:57:42;3.25;;;1.95;;
19173;SDS011;9719;49.322;8.536;2022-08-11T20:03:04;4.43;;;1.73;;
19173;SDS011;9719;49.322;8.536;2022-08-11T20:08:27;2.35;;;1.65;;
19173;SDS011;9719;49.322;8.536;2022-08-11T20:13:50;3.50;;;1.83;;
19173;SDS011;9719;49.322;8.536;2022-08-11T20:19:09;1.77;;;1.67;;
19173;SDS011;9719;49.322;8.536;2022-08-11T20:24:29;1.90;;;1.63;;
19173;SDS011;9719;49.322;8.536;2022-08-11T20:29:51;1.73;;;1.63;;
19173;SDS011;9719;49.322;8.536;2022-08-11T20:35:13;2.45;;;1.88;;
19173;SDS011;9719;49.322;8.536;2022-08-11T20:40:33;2.20;;;2.00;;
19173;SDS011;9719;49.322;8.536;2022-08-11T20:45:54;1.70;;;1.60;;
19173;SDS011;9719;49.322;8.536;2022-08-11T20:51:15;2.72;;;1.70;;
19173;SDS011;9719;49.322;8.536;2022-08-11T20:56:35;3.70;;;2.08;;
19173;SDS011;9719;49.322;8.536;2022-08-11T21:01:56;3.53;;;1.75;;
19173;SDS011;9719;49.322;8.536;2022-08-11T21:07:20;2.75;;;2.50;;
19173;SDS011;9719;49.322;8.536;2022-08-11T21:12:43;2.95;;;2.08;;
19173;SDS011;9719;49.322;8.536;2022-08-11T21:18:05;3.25;;;2.30;;
19173;SDS011;9719;49.322;8.536;2022-08-11T21:23:26;2.90;;;2.55;;
19173;SDS011;9719;49.322;8.536;2022-08-11T21:28:49;2.10;;;1.90;;
19173;SDS011;9719;49.322;8.536;2022-08-11T21:34:13;2.35;;;2.15;;
19173;SDS011;9719;49.322;8.536;2022-08-11T21:39:34;3.45;;;2.47;;
19173;SDS011;9719;49.322;8.536;2022-08-11T21:44:55;3.03;;;1.92;;
19173;SDS011;9719;49.322;8.536;2022-08-11T21:50:17;4.28;;;2.13;;
19173;SDS011;9719;49.322;8.536;2022-08-11T21:55:37;2.20;;;2.00;;
19173;SDS011;9719;49.322;8.536;2022-08-11T22:00:58;2.90;;;2.60;;
19173;SDS011;9719;49.322;8.536;2022-08-11T22:06:19;9.05;;;3.78;;
19173;SDS011;9719;49.322;8.536;2022-08-11T22:11:40;3.45;;;2.80;;
19173;SDS011;9719;49.322;8.536;2022-08-11T22:16:59;3.28;;;2.97;;
19173;SDS011;9719;49.322;8.536;2022-08-11T22:22:20;2.83;;;2.63;;
19173;SDS011;9719;49.322;8.536;2022-08-11T22:27:40;4.00;;;2.45;;
19173;SDS011;9719;49.322;8.536;2022-08-11T22:33:00;3.22;;;2.72;;
19173;SDS011;9719;49.322;8.536;2022-08-11T22:38:22;3.80;;;2.67;;
19173;SDS011;9719;49.322;8.536;2022-08-11T22:43:43;4.22;;;2.63;;
19173;SDS011;9719;49.322;8.536;2022-08-11T22:49:03;4.03;;;2.72;;
19173;SDS011;9719;49.322;8.536;2022-08-11T22:54:24;2.30;;;2.10;;
19173;SDS011;9719;49.322;8.536;2022-08-11T22:59:45;3.20;;;2.70;;
19173;SDS011;9719;49.322;8.536;2022-08-11T23:05:05;2.42;;;2.22;;
19173;SDS011;9719;49.322;8.536;2022-08-11T23:10:27;5.65;;;2.65;;
19173;SDS011;9719;49.322;8.536;2022-08-11T23:15:48;3.47;;;2.63;;
19173;SDS011;9719;49.322;8.536;2022-08-11T23:21:07;2.75;;;2.53;;
19173;SDS011;9719;49.322;8.536;2022-08-11T23:26:30;4.47;;;2.50;;
19173;SDS011;9719;49.322;8.536;2022-08-11T23:31:49;3.50;;;2.72;;
19173;SDS011;9719;49.322;8.536;2022-08-11T23:37:10;6.95;;;2.70;;
19173;SDS011;9719;49.322;8.536;2022-08-11T23:42:30;3.05;;;2.38;;
19173;SDS011;9719;49.322;8.536;2022-08-11T23:47:54;3.50;;;2.65;;
19173;SDS011;9719;49.322;8.536;2022-08-11T23:53:15;2.53;;;2.28;;
19173;SDS011;9719;49.322;8.536;2022-08-11T23:58:37;3.75;;;2.53;;
